sensor_id;sensor_type;location;lat;lon;timestamp;P1;P2;P0
56069;PMS5003;41944;52.078;-0.058;2022-07-23T00:01:32;2;2;
56069;PMS5003;41944;52.078;-0.058;2022-07-23T00:04:00;3;3;
56069;PMS5003;41944;52.078;-0.058;2022-07-23T00:06:27;5;3;
56069;PMS5003;41944;52.078;-0.058;2022-07-23T00:08:53;5;3;
56069;PMS5003;41944;52.078;-0.058;2022-07-23T00:11:20;3;3;
56069;PMS5003;41944;52.078;-0.058;2022-07-23T00:13:47;4;3;
56069;PMS5003;41944;52.078;-0.058;2022-07-23T00:16:15;4;4;
56069;PMS5003;41944;52.078;-0.058;2022-07-23T00:18:42;3;2;
56069;PMS5003;41944;52.078;-0.058;2022-07-23T00:21:08;2;2;
56069;PMS5003;41944;52.078;-0.058;2022-07-23T00:23:35;4;4;
56069;PMS5003;41944;52.078;-0.058;2022-07-23T00:26:02;4;4;
56069;PMS5003;41944;52.078;-0.058;2022-07-23T00:28:30;3;1;
56069;PMS5003;41944;52.078;-0.058;2022-07-23T00:30:57;4;4;
56069;PMS5003;41944;52.078;-0.058;2022-07-23T00:33:24;3;3;
56069;PMS5003;41944;52.078;-0.058;2022-07-23T00:35:50;3;3;
56069;PMS5003;41944;52.078;-0.058;2022-07-23T00:38:17;8;4;
56069;PMS5003;41944;52.078;-0.058;2022-07-23T00:40:44;3;3;
56069;PMS5003;41944;52.078;-0.058;2022-07-23T00:43:11;5;3;
56069;PMS5003;41944;52.078;-0.058;2022-07-23T00:45:38;4;4;
56069;PMS5003;41944;52.078;-0.058;2022-07-23T00:48:05;3;3;
56069;PMS5003;41944;52.078;-0.058;2022-07-23T00:50:33;3;3;
56069;PMS5003;41944;52.078;-0.058;2022-07-23T00:53:00;2;2;
56069;PMS5003;41944;52.078;-0.058;2022-07-23T00:55:27;3;3;
56069;PMS5003;41944;52.078;-0.058;2022-07-23T00:57:54;3;3;
56069;PMS5003;41944;52.078;-0.058;2022-07-23T01:00:22;4;4;
56069;PMS5003;41944;52.078;-0.058;2022-07-23T01:02:48;4;4;
56069;PMS5003;41944;52.078;-0.058;2022-07-23T01:05:16;5;3;
56069;PMS5003;41944;52.078;-0.058;2022-07-23T01:07:44;5;3;
56069;PMS5003;41944;52.078;-0.058;2022-07-23T01:10:13;5;3;
56069;PMS5003;41944;52.078;-0.058;2022-07-23T01:12:41;5;4;
56069;PMS5003;41944;52.078;-0.058;2022-07-23T01:15:08;4;4;
56069;PMS5003;41944;52.078;-0.058;2022-07-23T01:17:36;3;3;
56069;PMS5003;41944;52.078;-0.058;2022-07-23T01:20:03;5;4;
56069;PMS5003;41944;52.078;-0.058;2022-07-23T01:22:30;2;2;
56069;PMS5003;41944;52.078;-0.058;2022-07-23T01:24:57;4;3;
56069;PMS5003;41944;52.078;-0.058;2022-07-23T01:27:24;4;3;
56069;PMS5003;41944;52.078;-0.058;2022-07-23T01:29:51;4;4;
56069;PMS5003;41944;52.078;-0.058;2022-07-23T01:32:18;2;2;
56069;PMS5003;41944;52.078;-0.058;2022-07-23T01:34:45;3;3;
56069;PMS5003;41944;52.078;-0.058;2022-07-23T01:37:13;4;4;
56069;PMS5003;41944;52.078;-0.058;2022-07-23T01:39:40;4;4;
56069;PMS5003;41944;52.078;-0.058;2022-07-23T01:42:07;6;5;
56069;PMS5003;41944;52.078;-0.058;2022-07-23T01:44:34;4;4;
56069;PMS5003;41944;52.078;-0.058;2022-07-23T01:47:01;4;4;
56069;PMS5003;41944;52.078;-0.058;2022-07-23T01:49:27;6;5;
56069;PMS5003;41944;52.078;-0.058;2022-07-23T01:51:54;2;2;
56069;PMS5003;41944;52.078;-0.058;2022-07-23T01:54:21;4;4;
56069;PMS5003;41944;52.078;-0.058;2022-07-23T01:56:48;3;3;
56069;PMS5003;41944;52.078;-0.058;2022-07-23T01:59:15;3;3;
56069;PMS5003;41944;52.078;-0.058;2022-07-23T02:01:42;5;4;
56069;PMS5003;41944;52.078;-0.058;2022-07-23T02:04:09;4;4;
56069;PMS5003;41944;52.078;-0.058;2022-07-23T02:06:35;3;3;
56069;PMS5003;41944;52.078;-0.058;2022-07-23T02:09:02;4;4;
56069;PMS5003;41944;52.078;-0.058;2022-07-23T02:11:29;5;4;
56069;PMS5003;41944;52.078;-0.058;2022-07-23T02:13:56;3;3;
56069;PMS5003;41944;52.078;-0.058;2022-07-23T02:16:23;4;4;
56069;PMS5003;41944;52.078;-0.058;2022-07-23T02:18:50;2;2;
56069;PMS5003;41944;52.078;-0.058;2022-07-23T02:21:16;4;3;
56069;PMS5003;41944;52.078;-0.058;2022-07-23T02:23:44;3;3;
56069;PMS5003;41944;52.078;-0.058;2022-07-23T02:26:11;4;4;
56069;PMS5003;41944;52.078;-0.058;2022-07-23T02:28:38;5;4;
56069;PMS5003;41944;52.078;-0.058;2022-07-23T02:31:05;5;4;
56069;PMS5003;41944;52.078;-0.058;2022-07-23T02:33:32;5;4;
56069;PMS5003;41944;52.078;-0.058;2022-07-23T02:35:58;5;4;
56069;PMS5003;41944;52.078;-0.058;2022-07-23T02:38:26;6;5;
56069;PMS5003;41944;52.078;-0.058;2022-07-23T02:40:53;6;5;
56069;PMS5003;41944;52.078;-0.058;2022-07-23T02:43:20;4;4;
56069;PMS5003;41944;52.078;-0.058;2022-07-23T02:45:47;3;3;
56069;PMS5003;41944;52.078;-0.058;2022-07-23T02:48:14;6;6;
56069;PMS5003;41944;52.078;-0.058;2022-07-23T02:50:40;5;5;
56069;PMS5003;41944;52.078;-0.058;2022-07-23T02:53:07;5;4;
56069;PMS5003;41944;52.078;-0.058;2022-07-23T02:55:34;5;5;
56069;PMS5003;41944;52.078;-0.058;2022-07-23T02:58:01;7;4;
56069;PMS5003;41944;52.078;-0.058;2022-07-23T03:00:28;3;3;
56069;PMS5003;41944;52.078;-0.058;2022-07-23T03:02:55;5;4;
56069;PMS5003;41944;52.078;-0.058;2022-07-23T03:05:21;5;3;
56069;PMS5003;41944;52.078;-0.058;2022-07-23T03:07:48;4;4;
56069;PMS5003;41944;52.078;-0.058;2022-07-23T03:10:15;4;4;
56069;PMS5003;41944;52.078;-0.058;2022-07-23T03:12:42;3;3;
56069;PMS5003;41944;52.078;-0.058;2022-07-23T03:15:09;3;3;
56069;PMS5003;41944;52.078;-0.058;2022-07-23T03:17:37;3;3;
56069;PMS5003;41944;52.078;-0.058;2022-07-23T03:20:04;4;4;
56069;PMS5003;41944;52.078;-0.058;2022-07-23T03:22:32;4;4;
56069;PMS5003;41944;52.078;-0.058;2022-07-23T03:24:59;3;3;
56069;PMS5003;41944;52.078;-0.058;2022-07-23T03:27:26;5;5;
56069;PMS5003;41944;52.078;-0.058;2022-07-23T03:29:55;5;5;
56069;PMS5003;41944;52.078;-0.058;2022-07-23T03:32:24;4;4;
56069;PMS5003;41944;52.078;-0.058;2022-07-23T03:34:51;7;5;
56069;PMS5003;41944;52.078;-0.058;2022-07-23T03:37:18;7;4;
56069;PMS5003;41944;52.078;-0.058;2022-07-23T03:39:46;7;6;
56069;PMS5003;41944;52.078;-0.058;2022-07-23T03:42:13;6;6;
56069;PMS5003;41944;52.078;-0.058;2022-07-23T03:44:41;12;6;
56069;PMS5003;41944;52.078;-0.058;2022-07-23T03:47:08;6;6;
56069;PMS5003;41944;52.078;-0.058;2022-07-23T03:49:35;4;4;
56069;PMS5003;41944;52.078;-0.058;2022-07-23T03:52:02;6;6;
56069;PMS5003;41944;52.078;-0.058;2022-07-23T03:54:30;4;4;
56069;PMS5003;41944;52.078;-0.058;2022-07-23T03:56:57;10;5;
56069;PMS5003;41944;52.078;-0.058;2022-07-23T03:59:23;6;6;
56069;PMS5003;41944;52.078;-0.058;2022-07-23T04:01:50;6;6;
56069;PMS5003;41944;52.078;-0.058;2022-07-23T04:04:17;8;6;
56069;PMS5003;41944;52.078;-0.058;2022-07-23T04:06:44;7;4;
56069;PMS5003;41944;52.078;-0.058;2022-07-23T04:09:11;8;7;
56069;PMS5003;41944;52.078;-0.058;2022-07-23T04:11:39;6;6;
56069;PMS5003;41944;52.078;-0.058;2022-07-23T04:14:05;6;6;
56069;PMS5003;41944;52.078;-0.058;2022-07-23T04:16:32;6;6;
56069;PMS5003;41944;52.078;-0.058;2022-07-23T04:18:59;7;6;
56069;PMS5003;41944;52.078;-0.058;2022-07-23T04:21:26;6;6;
56069;PMS5003;41944;52.078;-0.058;2022-07-23T04:23:53;9;8;
56069;PMS5003;41944;52.078;-0.058;2022-07-23T04:26:20;6;6;
56069;PMS5003;41944;52.078;-0.058;2022-07-23T04:28:46;6;6;
56069;PMS5003;41944;52.078;-0.058;2022-07-23T04:31:14;10;8;
56069;PMS5003;41944;52.078;-0.058;2022-07-23T04:33:41;5;5;
56069;PMS5003;41944;52.078;-0.058;2022-07-23T04:36:08;5;5;
56069;PMS5003;41944;52.078;-0.058;2022-07-23T04:38:35;8;8;
56069;PMS5003;41944;52.078;-0.058;2022-07-23T04:41:02;8;8;
56069;PMS5003;41944;52.078;-0.058;2022-07-23T04:43:29;10;8;
56069;PMS5003;41944;52.078;-0.058;2022-07-23T04:45:55;5;4;
56069;PMS5003;41944;52.078;-0.058;2022-07-23T04:48:23;11;7;
56069;PMS5003;41944;52.078;-0.058;2022-07-23T04:50:50;6;6;
56069;PMS5003;41944;52.078;-0.058;2022-07-23T04:53:16;8;8;
56069;PMS5003;41944;52.078;-0.058;2022-07-23T04:55:43;8;8;
56069;PMS5003;41944;52.078;-0.058;2022-07-23T04:58:10;10;8;
56069;PMS5003;41944;52.078;-0.058;2022-07-23T05:00:37;8;6;
56069;PMS5003;41944;52.078;-0.058;2022-07-23T05:03:04;6;6;
56069;PMS5003;41944;52.078;-0.058;2022-07-23T05:05:31;12;8;
56069;PMS5003;41944;52.078;-0.058;2022-07-23T05:07:58;8;6;
56069;PMS5003;41944;52.078;-0.058;2022-07-23T05:10:25;7;6;
56069;PMS5003;41944;52.078;-0.058;2022-07-23T05:12:52;8;6;
56069;PMS5003;41944;52.078;-0.058;2022-07-23T05:15:20;7;7;
56069;PMS5003;41944;52.078;-0.058;2022-07-23T05:17:47;8;8;
56069;PMS5003;41944;52.078;-0.058;2022-07-23T05:20:14;8;5;
56069;PMS5003;41944;52.078;-0.058;2022-07-23T05:22:41;8;6;
56069;PMS5003;41944;52.078;-0.058;2022-07-23T05:25:08;7;5;
56069;PMS5003;41944;52.078;-0.058;2022-07-23T05:27:36;9;9;
56069;PMS5003;41944;52.078;-0.058;2022-07-23T05:30:03;11;7;
56069;PMS5003;41944;52.078;-0.058;2022-07-23T05:32:31;8;6;
56069;PMS5003;41944;52.078;-0.058;2022-07-23T05:34:58;8;7;
56069;PMS5003;41944;52.078;-0.058;2022-07-23T05:37:25;8;8;
56069;PMS5003;41944;52.078;-0.058;2022-07-23T05:39:52;8;8;
56069;PMS5003;41944;52.078;-0.058;2022-07-23T05:42:19;8;8;
56069;PMS5003;41944;52.078;-0.058;2022-07-23T05:44:46;5;5;
56069;PMS5003;41944;52.078;-0.058;2022-07-23T05:47:13;9;9;
56069;PMS5003;41944;52.078;-0.058;2022-07-23T05:49:41;16;10;
56069;PMS5003;41944;52.078;-0.058;2022-07-23T05:52:07;7;7;
56069;PMS5003;41944;52.078;-0.058;2022-07-23T05:54:34;11;9;
56069;PMS5003;41944;52.078;-0.058;2022-07-23T05:57:02;13;10;
56069;PMS5003;41944;52.078;-0.058;2022-07-23T05:59:30;11;8;
56069;PMS5003;41944;52.078;-0.058;2022-07-23T06:01:57;8;7;
56069;PMS5003;41944;52.078;-0.058;2022-07-23T06:04:24;13;10;
56069;PMS5003;41944;52.078;-0.058;2022-07-23T06:06:51;18;11;
56069;PMS5003;41944;52.078;-0.058;2022-07-23T06:09:19;15;15;
56069;PMS5003;41944;52.078;-0.058;2022-07-23T06:11:45;13;12;
56069;PMS5003;41944;52.078;-0.058;2022-07-23T06:14:12;14;11;
56069;PMS5003;41944;52.078;-0.058;2022-07-23T06:16:40;10;10;
56069;PMS5003;41944;52.078;-0.058;2022-07-23T06:19:07;9;9;
56069;PMS5003;41944;52.078;-0.058;2022-07-23T06:21:33;13;10;
56069;PMS5003;41944;52.078;-0.058;2022-07-23T06:24:00;13;11;
56069;PMS5003;41944;52.078;-0.058;2022-07-23T06:26:27;12;10;
56069;PMS5003;41944;52.078;-0.058;2022-07-23T06:28:54;16;14;
56069;PMS5003;41944;52.078;-0.058;2022-07-23T06:31:21;13;11;
56069;PMS5003;41944;52.078;-0.058;2022-07-23T06:33:49;16;13;
56069;PMS5003;41944;52.078;-0.058;2022-07-23T06:36:17;9;9;
56069;PMS5003;41944;52.078;-0.058;2022-07-23T06:38:44;13;12;
56069;PMS5003;41944;52.078;-0.058;2022-07-23T06:41:11;16;12;
56069;PMS5003;41944;52.078;-0.058;2022-07-23T06:43:38;14;12;
56069;PMS5003;41944;52.078;-0.058;2022-07-23T06:46:05;12;11;
56069;PMS5003;41944;52.078;-0.058;2022-07-23T06:48:33;14;11;
56069;PMS5003;41944;52.078;-0.058;2022-07-23T06:51:00;15;14;
56069;PMS5003;41944;52.078;-0.058;2022-07-23T06:53:27;12;12;
56069;PMS5003;41944;52.078;-0.058;2022-07-23T06:55:54;15;15;
56069;PMS5003;41944;52.078;-0.058;2022-07-23T06:58:21;16;11;
56069;PMS5003;41944;52.078;-0.058;2022-07-23T07:00:48;17;12;
56069;PMS5003;41944;52.078;-0.058;2022-07-23T07:03:16;16;14;
56069;PMS5003;41944;52.078;-0.058;2022-07-23T07:05:43;13;12;
56069;PMS5003;41944;52.078;-0.058;2022-07-23T07:08:11;13;12;
56069;PMS5003;41944;52.078;-0.058;2022-07-23T07:10:37;11;9;
56069;PMS5003;41944;52.078;-0.058;2022-07-23T07:13:04;11;11;
56069;PMS5003;41944;52.078;-0.058;2022-07-23T07:15:31;11;11;
56069;PMS5003;41944;52.078;-0.058;2022-07-23T07:17:58;13;12;
56069;PMS5003;41944;52.078;-0.058;2022-07-23T07:20:26;15;12;
56069;PMS5003;41944;52.078;-0.058;2022-07-23T07:22:53;15;13;
56069;PMS5003;41944;52.078;-0.058;2022-07-23T07:25:20;17;13;
56069;PMS5003;41944;52.078;-0.058;2022-07-23T07:27:47;14;11;
56069;PMS5003;41944;52.078;-0.058;2022-07-23T07:30:14;15;14;
56069;PMS5003;41944;52.078;-0.058;2022-07-23T07:32:42;15;13;
56069;PMS5003;41944;52.078;-0.058;2022-07-23T07:35:09;11;11;
56069;PMS5003;41944;52.078;-0.058;2022-07-23T07:37:37;12;12;
56069;PMS5003;41944;52.078;-0.058;2022-07-23T07:40:05;13;13;
56069;PMS5003;41944;52.078;-0.058;2022-07-23T07:42:33;12;11;
56069;PMS5003;41944;52.078;-0.058;2022-07-23T07:45:00;15;13;
56069;PMS5003;41944;52.078;-0.058;2022-07-23T07:47:28;14;12;
56069;PMS5003;41944;52.078;-0.058;2022-07-23T07:49:54;14;12;
56069;PMS5003;41944;52.078;-0.058;2022-07-23T07:52:21;14;13;
56069;PMS5003;41944;52.078;-0.058;2022-07-23T07:54:48;14;13;
56069;PMS5003;41944;52.078;-0.058;2022-07-23T07:57:16;20;15;
56069;PMS5003;41944;52.078;-0.058;2022-07-23T07:59:43;15;15;
56069;PMS5003;41944;52.078;-0.058;2022-07-23T08:02:10;12;10;
56069;PMS5003;41944;52.078;-0.058;2022-07-23T08:04:37;14;13;
56069;PMS5003;41944;52.078;-0.058;2022-07-23T08:07:04;20;17;
56069;PMS5003;41944;52.078;-0.058;2022-07-23T08:09:31;20;17;
56069;PMS5003;41944;52.078;-0.058;2022-07-23T08:11:58;17;17;
56069;PMS5003;41944;52.078;-0.058;2022-07-23T08:14:25;18;18;
56069;PMS5003;41944;52.078;-0.058;2022-07-23T08:16:52;15;15;
56069;PMS5003;41944;52.078;-0.058;2022-07-23T08:19:20;17;15;
56069;PMS5003;41944;52.078;-0.058;2022-07-23T08:21:47;21;20;
56069;PMS5003;41944;52.078;-0.058;2022-07-23T08:24:15;24;19;
56069;PMS5003;41944;52.078;-0.058;2022-07-23T08:26:41;19;19;
56069;PMS5003;41944;52.078;-0.058;2022-07-23T08:29:08;19;18;
56069;PMS5003;41944;52.078;-0.058;2022-07-23T08:31:36;21;18;
56069;PMS5003;41944;52.078;-0.058;2022-07-23T08:34:03;20;17;
56069;PMS5003;41944;52.078;-0.058;2022-07-23T08:36:30;17;17;
56069;PMS5003;41944;52.078;-0.058;2022-07-23T08:38:58;19;16;
56069;PMS5003;41944;52.078;-0.058;2022-07-23T08:41:25;17;17;
56069;PMS5003;41944;52.078;-0.058;2022-07-23T08:43:52;15;15;
56069;PMS5003;41944;52.078;-0.058;2022-07-23T08:46:20;17;17;
56069;PMS5003;41944;52.078;-0.058;2022-07-23T08:48:47;19;18;
56069;PMS5003;41944;52.078;-0.058;2022-07-23T08:51:15;20;18;
56069;PMS5003;41944;52.078;-0.058;2022-07-23T08:53:42;15;14;
56069;PMS5003;41944;52.078;-0.058;2022-07-23T08:56:11;18;18;
56069;PMS5003;41944;52.078;-0.058;2022-07-23T08:58:38;19;18;
56069;PMS5003;41944;52.078;-0.058;2022-07-23T09:01:05;16;14;
56069;PMS5003;41944;52.078;-0.058;2022-07-23T09:03:32;18;17;
56069;PMS5003;41944;52.078;-0.058;2022-07-23T09:06:02;22;17;
56069;PMS5003;41944;52.078;-0.058;2022-07-23T09:08:34;17;17;
56069;PMS5003;41944;52.078;-0.058;2022-07-23T09:11:03;21;19;
56069;PMS5003;41944;52.078;-0.058;2022-07-23T09:13:33;20;18;
56069;PMS5003;41944;52.078;-0.058;2022-07-23T09:16:04;20;19;
56069;PMS5003;41944;52.078;-0.058;2022-07-23T09:18:35;19;17;
56069;PMS5003;41944;52.078;-0.058;2022-07-23T09:21:06;23;17;
56069;PMS5003;41944;52.078;-0.058;2022-07-23T09:23:38;19;18;
56069;PMS5003;41944;52.078;-0.058;2022-07-23T09:26:23;19;19;
56069;PMS5003;41944;52.078;-0.058;2022-07-23T09:28:55;18;18;
56069;PMS5003;41944;52.078;-0.058;2022-07-23T09:31:27;21;19;
56069;PMS5003;41944;52.078;-0.058;2022-07-23T09:34:07;18;18;
56069;PMS5003;41944;52.078;-0.058;2022-07-23T09:36:37;23;19;
56069;PMS5003;41944;52.078;-0.058;2022-07-23T09:39:04;18;14;
56069;PMS5003;41944;52.078;-0.058;2022-07-23T09:41:36;17;17;
56069;PMS5003;41944;52.078;-0.058;2022-07-23T09:44:09;16;15;
56069;PMS5003;41944;52.078;-0.058;2022-07-23T09:46:38;16;16;
56069;PMS5003;41944;52.078;-0.058;2022-07-23T09:49:11;17;14;
56069;PMS5003;41944;52.078;-0.058;2022-07-23T09:51:45;17;16;
56069;PMS5003;41944;52.078;-0.058;2022-07-23T09:54:26;19;17;
56069;PMS5003;41944;52.078;-0.058;2022-07-23T09:56:56;15;15;
56069;PMS5003;41944;52.078;-0.058;2022-07-23T09:59:25;14;12;
56069;PMS5003;41944;52.078;-0.058;2022-07-23T10:01:55;14;14;
56069;PMS5003;41944;52.078;-0.058;2022-07-23T10:04:24;15;12;
56069;PMS5003;41944;52.078;-0.058;2022-07-23T10:06:53;14;13;
56069;PMS5003;41944;52.078;-0.058;2022-07-23T10:09:22;28;24;
56069;PMS5003;41944;52.078;-0.058;2022-07-23T10:11:55;16;16;
56069;PMS5003;41944;52.078;-0.058;2022-07-23T10:14:24;15;14;
56069;PMS5003;41944;52.078;-0.058;2022-07-23T10:16:51;18;13;
56069;PMS5003;41944;52.078;-0.058;2022-07-23T10:19:18;16;14;
56069;PMS5003;41944;52.078;-0.058;2022-07-23T10:21:47;14;14;
56069;PMS5003;41944;52.078;-0.058;2022-07-23T10:24:20;13;11;
56069;PMS5003;41944;52.078;-0.058;2022-07-23T10:27:00;17;13;
56069;PMS5003;41944;52.078;-0.058;2022-07-23T10:29:36;17;16;
56069;PMS5003;41944;52.078;-0.058;2022-07-23T10:32:17;15;12;
56069;PMS5003;41944;52.078;-0.058;2022-07-23T10:34:55;14;11;
56069;PMS5003;41944;52.078;-0.058;2022-07-23T10:37:32;12;12;
56069;PMS5003;41944;52.078;-0.058;2022-07-23T10:40:08;9;9;
56069;PMS5003;41944;52.078;-0.058;2022-07-23T10:42:37;29;27;
56069;PMS5003;41944;52.078;-0.058;2022-07-23T10:45:22;14;9;
56069;PMS5003;41944;52.078;-0.058;2022-07-23T10:47:51;10;10;
56069;PMS5003;41944;52.078;-0.058;2022-07-23T10:50:20;9;8;
56069;PMS5003;41944;52.078;-0.058;2022-07-23T10:53:21;9;9;
56069;PMS5003;41944;52.078;-0.058;2022-07-23T10:55:49;12;8;
56069;PMS5003;41944;52.078;-0.058;2022-07-23T10:58:20;11;9;
56069;PMS5003;41944;52.078;-0.058;2022-07-23T11:00:49;8;8;
56069;PMS5003;41944;52.078;-0.058;2022-07-23T11:03:56;8;8;
56069;PMS5003;41944;52.078;-0.058;2022-07-23T11:06:23;10;8;
56069;PMS5003;41944;52.078;-0.058;2022-07-23T11:08:51;8;8;
56069;PMS5003;41944;52.078;-0.058;2022-07-23T11:11:58;10;10;
56069;PMS5003;41944;52.078;-0.058;2022-07-23T11:14:59;9;7;
56069;PMS5003;41944;52.078;-0.058;2022-07-23T11:17:30;7;7;
56069;PMS5003;41944;52.078;-0.058;2022-07-23T11:20:16;9;9;
56069;PMS5003;41944;52.078;-0.058;2022-07-23T11:22:47;7;6;
56069;PMS5003;41944;52.078;-0.058;2022-07-23T11:25:28;9;7;
56069;PMS5003;41944;52.078;-0.058;2022-07-23T11:28:08;8;8;
56069;PMS5003;41944;52.078;-0.058;2022-07-23T11:30:38;8;6;
56069;PMS5003;41944;52.078;-0.058;2022-07-23T11:33:19;9;7;
56069;PMS5003;41944;52.078;-0.058;2022-07-23T11:35:48;7;7;
56069;PMS5003;41944;52.078;-0.058;2022-07-23T11:38:25;7;5;
56069;PMS5003;41944;52.078;-0.058;2022-07-23T11:40:52;6;6;
56069;PMS5003;41944;52.078;-0.058;2022-07-23T11:43:21;9;7;
56069;PMS5003;41944;52.078;-0.058;2022-07-23T11:45:50;8;7;
56069;PMS5003;41944;52.078;-0.058;2022-07-23T11:48:19;8;8;
56069;PMS5003;41944;52.078;-0.058;2022-07-23T11:50:48;5;5;
56069;PMS5003;41944;52.078;-0.058;2022-07-23T11:53:21;9;8;
56069;PMS5003;41944;52.078;-0.058;2022-07-23T11:55:50;7;7;
56069;PMS5003;41944;52.078;-0.058;2022-07-23T11:58:17;6;6;
56069;PMS5003;41944;52.078;-0.058;2022-07-23T12:00:45;6;6;
56069;PMS5003;41944;52.078;-0.058;2022-07-23T12:03:12;7;5;
56069;PMS5003;41944;52.078;-0.058;2022-07-23T12:05:39;6;6;
56069;PMS5003;41944;52.078;-0.058;2022-07-23T12:08:07;5;5;
56069;PMS5003;41944;52.078;-0.058;2022-07-23T12:10:36;9;9;
56069;PMS5003;41944;52.078;-0.058;2022-07-23T12:13:05;6;6;
56069;PMS5003;41944;52.078;-0.058;2022-07-23T12:15:35;8;6;
56069;PMS5003;41944;52.078;-0.058;2022-07-23T12:18:05;7;7;
56069;PMS5003;41944;52.078;-0.058;2022-07-23T12:20:34;10;7;
56069;PMS5003;41944;52.078;-0.058;2022-07-23T12:23:04;5;5;
56069;PMS5003;41944;52.078;-0.058;2022-07-23T12:25:33;4;4;
56069;PMS5003;41944;52.078;-0.058;2022-07-23T12:28:03;5;5;
56069;PMS5003;41944;52.078;-0.058;2022-07-23T12:30:33;6;6;
56069;PMS5003;41944;52.078;-0.058;2022-07-23T12:33:03;8;8;
56069;PMS5003;41944;52.078;-0.058;2022-07-23T12:35:34;9;6;
56069;PMS5003;41944;52.078;-0.058;2022-07-23T12:38:04;7;6;
56069;PMS5003;41944;52.078;-0.058;2022-07-23T12:40:33;8;6;
56069;PMS5003;41944;52.078;-0.058;2022-07-23T12:43:02;6;6;
56069;PMS5003;41944;52.078;-0.058;2022-07-23T12:45:47;8;6;
56069;PMS5003;41944;52.078;-0.058;2022-07-23T12:48:16;6;6;
56069;PMS5003;41944;52.078;-0.058;2022-07-23T12:50:49;4;4;
56069;PMS5003;41944;52.078;-0.058;2022-07-23T12:53:19;5;5;
56069;PMS5003;41944;52.078;-0.058;2022-07-23T12:55:48;8;7;
56069;PMS5003;41944;52.078;-0.058;2022-07-23T12:58:17;8;5;
56069;PMS5003;41944;52.078;-0.058;2022-07-23T13:00:54;6;6;
56069;PMS5003;41944;52.078;-0.058;2022-07-23T13:03:25;7;7;
56069;PMS5003;41944;52.078;-0.058;2022-07-23T13:05:54;7;7;
56069;PMS5003;41944;52.078;-0.058;2022-07-23T13:08:23;8;7;
56069;PMS5003;41944;52.078;-0.058;2022-07-23T13:10:51;9;8;
56069;PMS5003;41944;52.078;-0.058;2022-07-23T13:13:20;6;6;
56069;PMS5003;41944;52.078;-0.058;2022-07-23T13:15:48;8;7;
56069;PMS5003;41944;52.078;-0.058;2022-07-23T13:18:16;7;5;
56069;PMS5003;41944;52.078;-0.058;2022-07-23T13:20:43;6;6;
56069;PMS5003;41944;52.078;-0.058;2022-07-23T13:23:11;7;6;
56069;PMS5003;41944;52.078;-0.058;2022-07-23T13:25:39;4;4;
56069;PMS5003;41944;52.078;-0.058;2022-07-23T13:28:07;6;6;
56069;PMS5003;41944;52.078;-0.058;2022-07-23T13:30:35;8;8;
56069;PMS5003;41944;52.078;-0.058;2022-07-23T13:33:03;5;5;
56069;PMS5003;41944;52.078;-0.058;2022-07-23T13:35:31;7;5;
56069;PMS5003;41944;52.078;-0.058;2022-07-23T13:38:00;7;5;
56069;PMS5003;41944;52.078;-0.058;2022-07-23T13:40:26;7;6;
56069;PMS5003;41944;52.078;-0.058;2022-07-23T13:42:53;6;6;
56069;PMS5003;41944;52.078;-0.058;2022-07-23T13:45:21;7;7;
56069;PMS5003;41944;52.078;-0.058;2022-07-23T13:47:48;6;6;
56069;PMS5003;41944;52.078;-0.058;2022-07-23T13:50:15;5;5;
56069;PMS5003;41944;52.078;-0.058;2022-07-23T13:52:42;7;6;
56069;PMS5003;41944;52.078;-0.058;2022-07-23T13:55:10;7;7;
56069;PMS5003;41944;52.078;-0.058;2022-07-23T13:57:37;5;5;
56069;PMS5003;41944;52.078;-0.058;2022-07-23T14:00:06;6;6;
56069;PMS5003;41944;52.078;-0.058;2022-07-23T14:02:36;4;4;
56069;PMS5003;41944;52.078;-0.058;2022-07-23T14:05:05;5;5;
56069;PMS5003;41944;52.078;-0.058;2022-07-23T14:07:33;3;3;
56069;PMS5003;41944;52.078;-0.058;2022-07-23T14:10:02;6;4;
56069;PMS5003;41944;52.078;-0.058;2022-07-23T14:12:31;5;5;
56069;PMS5003;41944;52.078;-0.058;2022-07-23T14:14:58;7;5;
56069;PMS5003;41944;52.078;-0.058;2022-07-23T14:17:25;5;5;
56069;PMS5003;41944;52.078;-0.058;2022-07-23T14:19:52;3;3;
56069;PMS5003;41944;52.078;-0.058;2022-07-23T14:22:19;4;4;
56069;PMS5003;41944;52.078;-0.058;2022-07-23T14:24:47;5;4;
56069;PMS5003;41944;52.078;-0.058;2022-07-23T14:27:14;7;6;
56069;PMS5003;41944;52.078;-0.058;2022-07-23T14:29:42;3;3;
56069;PMS5003;41944;52.078;-0.058;2022-07-23T14:32:09;4;4;
56069;PMS5003;41944;52.078;-0.058;2022-07-23T14:34:36;4;4;
56069;PMS5003;41944;52.078;-0.058;2022-07-23T14:37:04;3;3;
56069;PMS5003;41944;52.078;-0.058;2022-07-23T14:39:31;3;3;
56069;PMS5003;41944;52.078;-0.058;2022-07-23T14:41:57;2;2;
56069;PMS5003;41944;52.078;-0.058;2022-07-23T14:44:24;4;4;
56069;PMS5003;41944;52.078;-0.058;2022-07-23T14:46:51;2;2;
56069;PMS5003;41944;52.078;-0.058;2022-07-23T14:49:19;3;3;
56069;PMS5003;41944;52.078;-0.058;2022-07-23T14:51:46;3;3;
56069;PMS5003;41944;52.078;-0.058;2022-07-23T14:54:13;4;4;
56069;PMS5003;41944;52.078;-0.058;2022-07-23T14:56:41;3;3;
56069;PMS5003;41944;52.078;-0.058;2022-07-23T14:59:08;4;4;
56069;PMS5003;41944;52.078;-0.058;2022-07-23T15:01:36;5;5;
56069;PMS5003;41944;52.078;-0.058;2022-07-23T15:04:03;4;2;
56069;PMS5003;41944;52.078;-0.058;2022-07-23T15:06:31;4;4;
56069;PMS5003;41944;52.078;-0.058;2022-07-23T15:08:58;4;4;
56069;PMS5003;41944;52.078;-0.058;2022-07-23T15:11:25;2;2;
56069;PMS5003;41944;52.078;-0.058;2022-07-23T15:13:53;2;2;
56069;PMS5003;41944;52.078;-0.058;2022-07-23T15:16:20;4;3;
56069;PMS5003;41944;52.078;-0.058;2022-07-23T15:18:47;2;2;
56069;PMS5003;41944;52.078;-0.058;2022-07-23T15:21:14;6;6;
56069;PMS5003;41944;52.078;-0.058;2022-07-23T15:23:42;2;2;
56069;PMS5003;41944;52.078;-0.058;2022-07-23T15:26:09;4;4;
56069;PMS5003;41944;52.078;-0.058;2022-07-23T15:28:36;2;2;
56069;PMS5003;41944;52.078;-0.058;2022-07-23T15:31:04;3;3;
56069;PMS5003;41944;52.078;-0.058;2022-07-23T15:33:31;5;4;
56069;PMS5003;41944;52.078;-0.058;2022-07-23T15:35:58;3;3;
56069;PMS5003;41944;52.078;-0.058;2022-07-23T15:38:25;3;3;
56069;PMS5003;41944;52.078;-0.058;2022-07-23T15:40:53;3;3;
56069;PMS5003;41944;52.078;-0.058;2022-07-23T15:43:21;4;4;
56069;PMS5003;41944;52.078;-0.058;2022-07-23T15:45:48;4;4;
56069;PMS5003;41944;52.078;-0.058;2022-07-23T15:48:16;4;4;
56069;PMS5003;41944;52.078;-0.058;2022-07-23T15:50:46;3;3;
56069;PMS5003;41944;52.078;-0.058;2022-07-23T15:53:14;3;3;
56069;PMS5003;41944;52.078;-0.058;2022-07-23T15:55:41;3;3;
56069;PMS5003;41944;52.078;-0.058;2022-07-23T15:58:09;3;3;
56069;PMS5003;41944;52.078;-0.058;2022-07-23T16:00:37;3;3;
56069;PMS5003;41944;52.078;-0.058;2022-07-23T16:03:04;2;2;
56069;PMS5003;41944;52.078;-0.058;2022-07-23T16:05:31;2;2;
56069;PMS5003;41944;52.078;-0.058;2022-07-23T16:07:58;3;3;
56069;PMS5003;41944;52.078;-0.058;2022-07-23T16:10:25;4;4;
56069;PMS5003;41944;52.078;-0.058;2022-07-23T16:12:52;4;3;
56069;PMS5003;41944;52.078;-0.058;2022-07-23T16:15:19;1;1;
56069;PMS5003;41944;52.078;-0.058;2022-07-23T16:17:47;2;2;
56069;PMS5003;41944;52.078;-0.058;2022-07-23T16:20:15;1;1;
56069;PMS5003;41944;52.078;-0.058;2022-07-23T16:22:42;1;1;
56069;PMS5003;41944;52.078;-0.058;2022-07-23T16:25:09;3;3;
56069;PMS5003;41944;52.078;-0.058;2022-07-23T16:27:37;2;2;
56069;PMS5003;41944;52.078;-0.058;2022-07-23T16:30:07;1;1;
56069;PMS5003;41944;52.078;-0.058;2022-07-23T16:32:36;3;3;